Time;durP1;ratioP1;P1;durP2;ratioP2;P2;SDS_P1;SDS_P2;PMS_P1;PMS_P2;Temp;Humidity;BMP_temperature;BMP_pressure;BME280_temperature;BME280_humidity;BME280_pressure;Samples;Min_cycle;Max_cycle;Signal;HPM_P1;HPM_P2
2022/10/25 00:09:05;;;;;;;34.47;19.08;;;12.50;99.90;;;;;;21123234;27;20031;-61
2022/10/25 00:19:10;;;;;;;29.40;17.05;;;12.50;99.90;;;;;;21139404;27;20392;-61
2022/10/25 00:29:13;;;;;;;27.40;16.65;;;12.20;99.90;;;;;;21138756;27;20067;-66
2022/10/25 00:39:15;;;;;;;22.83;14.38;;;12.20;99.90;;;;;;21138589;27;20100;-66
2022/10/25 00:49:20;;;;;;;124.70;14.38;;;12.00;99.90;;;;;;21120140;27;20048;-61
2022/10/25 00:59:27;;;;;;;21.25;13.00;;;11.70;99.90;;;;;;21053247;28;20056;-61
2022/10/25 01:09:33;;;;;;;14.70;9.18;;;11.50;99.90;;;;;;21052978;28;20365;-63
2022/10/25 01:19:56;;;;;;;14.02;8.73;;;11.50;99.90;;;;;;21051431;28;20093;-61
2022/10/25 01:30:03;;;;;;;5.90;2.90;;;11.40;99.90;;;;;;21055604;28;20089;-61
2022/10/25 01:40:27;;;;;;;3.60;1.20;;;11.30;99.90;;;;;;21068046;28;20032;-61
2022/10/25 01:50:38;;;;;;;3.90;0.70;;;11.10;99.90;;;;;;21066881;28;20044;-70
2022/10/25 02:00:54;;;;;;;;;;;11.00;99.90;;;;;;21066989;28;20361;-65
2022/10/25 02:11:20;;;;;;;1.23;0.30;;;10.40;99.90;;;;;;21065178;28;19912;-65
2022/10/25 02:21:25;;;;;;;3.65;0.30;;;10.40;99.90;;;;;;21064562;28;20036;-64
2022/10/25 02:31:33;;;;;;;1.38;0.20;;;10.70;99.90;;;;;;21064459;28;20066;-68
2022/10/25 02:41:35;;;;;;;1.25;0.40;;;10.30;99.90;;;;;;21061834;28;20488;-69
2022/10/25 02:51:38;;;;;;;1.85;0.70;;;10.30;99.90;;;;;;21062666;28;20044;-63
2022/10/25 03:01:40;;;;;;;5.15;0.50;;;10.30;99.90;;;;;;21057744;28;20488;-65
2022/10/25 03:11:42;;;;;;;1.80;0.52;;;10.20;99.90;;;;;;21060837;28;20089;-67
2022/10/25 03:21:45;;;;;;;4.32;0.80;;;10.10;99.90;;;;;;21059687;28;20040;-68
2022/10/25 03:31:48;;;;;;;3.00;0.90;;;10.20;99.90;;;;;;21043256;28;20031;-69
2022/10/25 03:41:51;;;;;;;6.10;1.52;;;10.10;99.90;;;;;;21078886;28;20089;-70
2022/10/25 03:51:53;;;;;;;4.60;1.27;;;10.70;99.90;;;;;;21057740;28;20032;-69
2022/10/25 04:01:56;;;;;;;3.58;1.65;;;10.70;99.90;;;;;;21036679;28;20063;-65
2022/10/25 04:11:58;;;;;;;9.40;2.40;;;10.30;99.90;;;;;;21056444;28;20036;-69
2022/10/25 04:22:01;;;;;;;5.05;1.92;;;10.20;99.90;;;;;;21054804;28;20040;-66
2022/10/25 04:32:05;;;;;;;5.68;1.50;;;10.20;99.90;;;;;;21054699;28;20024;-65
2022/10/25 04:42:07;;;;;;;3.45;1.60;;;10.50;99.90;;;;;;21054328;28;20131;-70
2022/10/25 04:52:10;;;;;;;7.45;2.30;;;10.30;99.90;;;;;;21054480;28;20101;-70
2022/10/25 05:02:14;;;;;;;2.85;1.27;;;10.20;99.90;;;;;;21056930;28;20074;-70
2022/10/25 05:12:16;;;;;;;3.33;0.80;;;10.20;99.90;;;;;;21051477;28;20081;-69
2022/10/25 05:22:19;;;;;;;1.63;0.50;;;10.00;99.90;;;;;;21051416;28;20058;-69
2022/10/25 05:32:21;;;;;;;4.07;0.88;;;9.90;99.90;;;;;;21055556;28;20542;-69
2022/10/25 05:42:26;;;;;;;1.85;0.43;;;10.00;99.90;;;;;;21050711;28;20066;-62
2022/10/25 05:52:29;;;;;;;1.45;0.40;;;10.00;99.90;;;;;;21050379;28;20044;-69
2022/10/25 06:02:32;;;;;;;2.35;0.60;;;9.80;99.90;;;;;;21048854;28;20561;-69
2022/10/25 06:12:35;;;;;;;1.42;0.50;;;9.70;99.90;;;;;;21033761;28;20117;-70
2022/10/25 06:22:56;;;;;;;2.83;0.40;;;9.60;99.90;;;;;;21062946;28;20040;-68
2022/10/25 06:32:59;;;;;;;6.40;0.50;;;9.60;99.90;;;;;;21064025;28;20180;-69
2022/10/25 06:43:01;;;;;;;1.45;0.30;;;9.70;99.90;;;;;;21048889;28;20386;-68
2022/10/25 06:53:04;;;;;;;0.98;0.30;;;9.70;99.90;;;;;;21058414;28;20028;-62
2022/10/25 07:03:07;;;;;;;0.82;0.20;;;9.80;99.90;;;;;;21061834;28;20028;-62
2022/10/25 07:13:09;;;;;;;0.98;0.10;;;10.10;99.90;;;;;;21060713;28;20040;-68
2022/10/25 07:23:12;;;;;;;0.77;0.10;;;10.40;99.90;;;;;;21055851;28;20663;-67
2022/10/25 07:33:17;;;;;;;0.57;0.20;;;10.70;99.90;;;;;;21058397;28;20396;-62
2022/10/25 07:43:20;;;;;;;0.68;0.20;;;10.90;99.90;;;;;;21057799;28;20052;-62
2022/10/25 07:53:23;;;;;;;3.33;0.20;;;11.00;99.90;;;;;;21057286;28;20093;-67
2022/10/25 08:03:25;;;;;;;0.45;0.15;;;11.40;99.90;;;;;;21056828;28;20040;-67
2022/10/25 08:13:28;;;;;;;0.10;0.10;;;11.90;99.90;;;;;;21039915;28;20058;-68
2022/10/25 08:23:31;;;;;;;1.67;0.40;;;13.00;99.90;;;;;;21052004;28;20902;-63
2022/10/25 08:33:34;;;;;;;1.95;0.30;;;13.40;99.90;;;;;;21054338;28;20032;-64
2022/10/25 08:44:25;;;;;;;0.45;0.20;;;13.50;99.90;;;;;;21037559;28;20052;-67
2022/10/25 08:54:36;;;;;;;1.27;0.30;;;14.00;99.90;;;;;;20794306;28;20095;-67
2022/10/25 09:04:42;;;;;;;1.88;0.30;;;14.20;99.90;;;;;;20777504;28;20042;-65
2022/10/25 09:15:21;;;;;;;2.45;0.50;;;14.40;99.90;;;;;;20793358;28;20045;-63
2022/10/25 09:25:44;;;;;;;1.25;0.40;;;14.60;99.90;;;;;;20881656;28;20040;-64
2022/10/25 09:35:52;;;;;;;1.30;0.30;;;14.90;99.90;;;;;;21050993;28;20037;-64
2022/10/25 09:46:02;;;;;;;0.93;0.40;;;15.40;99.90;;;;;;21050943;28;20060;-64
2022/10/25 09:56:06;;;;;;;1.15;0.32;;;15.50;99.90;;;;;;21061287;28;20032;-64
2022/10/25 10:06:18;;;;;;;1.02;0.30;;;15.40;99.90;;;;;;21066108;28;20485;-65
2022/10/25 10:16:44;;;;;;;1.75;0.32;;;15.10;99.90;;;;;;21082216;28;20044;-64
2022/10/25 10:26:53;;;;;;;1.35;0.47;;;15.20;99.90;;;;;;21048593;28;20032;-64
2022/10/25 10:37:12;;;;;;;1.03;0.53;;;14.90;99.90;;;;;;21059078;28;20040;-64
2022/10/25 10:47:20;;;;;;;1.20;0.60;;;15.10;99.90;;;;;;21062623;28;20048;-64
2022/10/25 10:57:32;;;;;;;1.25;0.60;;;15.70;99.90;;;;;;21062196;28;20028;-63
2022/10/25 11:07:35;;;;;;;1.27;0.70;;;16.30;99.90;;;;;;21044313;28;20089;-62
2022/10/25 11:17:47;;;;;;;2.20;0.43;;;17.00;99.90;;;;;;21058333;28;20058;-61
2022/10/25 11:28:14;;;;;;;1.67;0.70;;;17.00;99.90;;;;;;21059192;28;20031;-64
2022/10/25 11:38:44;;;;;;;2.92;1.20;;;17.30;99.90;;;;;;21059179;28;20040;-63
2022/10/25 11:49:05;;;;;;;2.05;1.10;;;17.90;99.90;;;;;;21058395;28;20538;-61
2022/10/25 11:59:14;;;;;;;4.18;1.48;;;18.20;99.90;;;;;;21057477;28;20423;-64
2022/10/25 12:09:19;;;;;;;4.90;1.67;;;18.20;99.90;;;;;;21040556;28;20040;-65
2022/10/25 12:19:29;;;;;;;4.60;1.50;;;18.70;99.90;;;;;;21055111;28;20032;-61
2022/10/25 12:29:34;;;;;;;;;;;19.20;99.90;;;;;;21055683;28;20550;-61
2022/10/25 12:39:45;;;;;;;4.80;1.70;;;19.10;99.90;;;;;;21054505;28;20364;-61
2022/10/25 12:49:53;;;;;;;5.22;1.73;;;18.90;99.90;;;;;;21053295;28;20044;-63
2022/10/25 13:00:10;;;;;;;4.32;1.73;;;18.60;99.90;;;;;;21057019;28;20040;-61
2022/10/25 13:10:22;;;;;;;2.92;2.10;;;18.40;99.90;;;;;;21036408;28;20089;-63
2022/10/25 13:20:34;;;;;;;5.75;2.50;;;18.70;99.90;;;;;;21051585;28;20086;-63
2022/10/25 13:30:36;;;;;;;6.22;2.90;;;17.90;99.90;;;;;;21063212;28;20039;-62
2022/10/25 13:40:39;;;;;;;5.72;3.17;;;17.40;99.90;;;;;;21067897;28;20485;-61
2022/10/25 13:51:04;;;;;;;5.10;3.03;;;16.90;99.90;;;;;;21067101;28;20040;-62
2022/10/25 14:01:16;;;;;;;6.95;4.07;;;16.70;99.90;;;;;;21066952;28;20086;-63
2022/10/25 14:11:35;;;;;;;7.15;4.05;;;16.40;99.90;;;;;;21065858;28;20040;-64
2022/10/25 14:21:38;;;;;;;7.63;4.20;;;16.40;99.90;;;;;;21064816;28;20036;-62
2022/10/25 14:31:41;;;;;;;8.05;4.30;;;15.80;99.90;;;;;;21064243;28;20101;-61
2022/10/25 14:41:56;;;;;;;11.02;5.82;;;14.90;99.90;;;;;;21063682;28;20437;-61
2022/10/25 14:52:05;;;;;;;10.60;5.60;;;14.50;99.90;;;;;;21062488;28;20047;-62
2022/10/25 15:02:31;;;;;;;10.52;6.10;;;14.20;99.90;;;;;;21062005;28;20477;-61
2022/10/25 15:12:35;;;;;;;11.25;6.90;;;13.70;99.90;;;;;;21061271;28;20400;-60
2022/10/25 15:22:37;;;;;;;13.57;7.20;;;13.40;99.90;;;;;;21044057;28;20093;-60
2022/10/25 15:32:39;;;;;;;10.90;7.50;;;13.00;99.90;;;;;;21043681;28;20408;-62
2022/10/25 15:42:41;;;;;;;16.17;8.68;;;12.60;99.90;;;;;;21058412;28;20056;-60
2022/10/25 15:52:45;;;;;;;11.45;5.75;;;12.20;99.90;;;;;;21057098;28;20370;-61
2022/10/25 16:02:48;;;;;;;11.95;5.20;;;11.80;99.90;;;;;;21057310;28;20032;-60
2022/10/25 16:13:26;;;;;;;7.82;3.65;;;11.80;99.90;;;;;;21056215;28;20036;-61
2022/10/25 16:23:29;;;;;;;18.42;8.80;;;11.50;99.90;;;;;;20815049;28;20041;-60
2022/10/25 16:33:32;;;;;;;22.55;9.55;;;11.20;99.90;;;;;;20815252;28;20552;-60
2022/10/25 16:43:34;;;;;;;22.85;13.45;;;11.20;99.90;;;;;;20797303;28;20041;-60
2022/10/25 16:53:37;;;;;;;27.63;12.10;;;11.00;99.90;;;;;;20853570;28;20037;-61
2022/10/25 17:03:39;;;;;;;18.50;10.35;;;11.00;99.90;;;;;;20969413;28;20048;-61
2022/10/25 17:13:43;;;;;;;20.50;10.15;;;10.70;99.90;;;;;;20951990;28;20036;-60
2022/10/25 17:23:45;;;;;;;24.33;10.30;;;10.40;99.90;;;;;;20967148;28;20109;-61
2022/10/25 17:33:48;;;;;;;19.02;7.25;;;10.20;99.90;;;;;;20963573;28;20033;-60
2022/10/25 17:43:50;;;;;;;19.05;10.43;;;9.90;99.90;;;;;;20968398;28;20048;-60
2022/10/25 17:53:54;;;;;;;30.58;15.25;;;9.90;99.90;;;;;;21050906;28;20058;-62
2022/10/25 18:03:56;;;;;;;40.58;20.23;;;10.20;99.90;;;;;;21046710;28;20027;-61
2022/10/25 18:14:01;;;;;;;29.15;15.75;;;10.50;99.90;;;;;;21072999;28;20094;-60
2022/10/25 18:24:04;;;;;;;42.25;22.23;;;10.50;99.90;;;;;;21065189;28;20032;-61
2022/10/25 18:34:06;;;;;;;36.40;17.50;;;9.90;99.90;;;;;;21064577;28;20373;-62
2022/10/25 18:44:09;;;;;;;49.10;21.48;;;10.20;99.90;;;;;;21063382;28;20048;-60
2022/10/25 18:54:12;;;;;;;39.28;22.55;;;10.60;99.90;;;;;;21045789;28;20062;-61
2022/10/25 19:04:14;;;;;;;40.47;22.05;;;10.90;99.90;;;;;;21058228;28;20027;-61
2022/10/25 19:14:17;;;;;;;34.25;19.73;;;11.10;99.90;;;;;;21060912;28;20066;-62
2022/10/25 19:24:21;;;;;;;33.22;17.90;;;11.10;99.90;;;;;;21059503;28;20314;-60
2022/10/25 19:34:24;;;;;;;30.13;17.15;;;11.00;99.90;;;;;;21055212;28;20081;-63
2022/10/25 19:44:27;;;;;;;42.10;21.88;;;10.90;99.90;;;;;;21057831;28;20493;-60
2022/10/25 19:54:29;;;;;;;35.45;18.25;;;10.80;99.90;;;;;;21058454;28;20434;-60
2022/10/25 20:04:31;;;;;;;37.28;19.83;;;10.80;99.90;;;;;;21052797;28;20035;-62
2022/10/25 20:14:36;;;;;;;34.50;18.73;;;10.70;99.90;;;;;;21056267;28;20073;-63
2022/10/25 20:24:39;;;;;;;38.22;17.10;;;10.60;99.90;;;;;;21055803;28;20549;-60
2022/10/25 20:34:42;;;;;;;24.10;12.60;;;10.40;99.90;;;;;;21050738;28;20876;-62
2022/10/25 20:44:44;;;;;;;23.80;11.55;;;10.00;99.90;;;;;;21054549;28;20557;-62
2022/10/25 20:54:47;;;;;;;33.92;15.35;;;9.80;99.90;;;;;;21053219;28;20097;-62
2022/10/25 21:04:49;;;;;;;45.53;20.08;;;9.90;99.90;;;;;;21049733;28;20081;-60
2022/10/25 21:14:52;;;;;;;29.45;16.08;;;9.80;99.90;;;;;;21036830;28;20070;-62
2022/10/25 21:24:55;;;;;;;40.20;18.48;;;9.70;99.90;;;;;;21053171;28;20040;-60
2022/10/25 21:34:57;;;;;;;25.73;13.05;;;9.60;99.90;;;;;;21055526;28;20389;-60
2022/10/25 21:45:00;;;;;;;34.08;16.35;;;9.50;99.90;;;;;;21051449;28;20070;-63
2022/10/25 21:55:02;;;;;;;37.65;17.52;;;9.50;99.90;;;;;;21051197;28;20044;-60
2022/10/25 22:05:05;;;;;;;49.17;22.70;;;9.70;99.90;;;;;;21070871;28;20036;-60
2022/10/25 22:15:08;;;;;;;41.47;20.60;;;10.00;99.90;;;;;;21066167;28;20028;-63
2022/10/25 22:25:11;;;;;;;42.97;19.15;;;10.30;99.90;;;;;;21065214;28;20039;-63
2022/10/25 22:35:14;;;;;;;42.35;18.90;;;10.40;99.90;;;;;;21064441;28;20488;-60
2022/10/25 22:45:16;;;;;;;56.13;27.20;;;10.60;99.90;;;;;;21063730;28;20101;-60
2022/10/25 22:55:19;;;;;;;67.43;30.38;;;10.80;99.90;;;;;;21054057;28;20040;-64
2022/10/25 23:05:21;;;;;;;34.88;17.48;;;10.90;99.90;;;;;;21060570;28;20105;-59
2022/10/25 23:15:23;;;;;;;42.75;22.55;;;10.70;99.90;;;;;;21045116;28;20148;-60
2022/10/25 23:25:27;;;;;;;74.07;31.63;;;10.40;99.90;;;;;;21061257;28;20389;-64
2022/10/25 23:35:31;;;;;;;79.60;33.53;;;10.40;99.90;;;;;;21060397;28;20414;-61
2022/10/25 23:45:33;;;;;;;49.50;23.05;;;10.70;99.90;;;;;;21058640;28;20048;-63
2022/10/25 23:55:37;;;;;;;54.13;27.05;;;10.90;99.90;;;;;;21057761;28;20544;-60
